Time;durP1;ratioP1;P1;durP2;ratioP2;P2;SDS_P1;SDS_P2;PMS_P1;PMS_P2;Temp;Humidity;BMP_temperature;BMP_pressure;BME280_temperature;BME280_humidity;BME280_pressure;Samples;Min_cycle;Max_cycle;Signal;HPM_P1;HPM_P2
2021/04/27 00:01:06;;;;;;;;;;;6.80;56.90;;;;;;5049337;28;19964;-95
2021/04/27 00:03:32;;;;;;;;;;;6.80;56.70;;;;;;5041904;28;19940;-93
2021/04/27 00:05:57;;;;;;;;;;;6.70;56.90;;;;;;5053534;28;19912;-94
2021/04/27 00:08:23;;;;;;;;;;;6.70;57.00;;;;;;5052589;28;19966;-92
2021/04/27 00:10:48;;;;;;;;;;;6.60;57.00;;;;;;5042828;28;19917;-92
2021/04/27 00:13:14;;;;;;;;;;;6.60;57.30;;;;;;5042183;28;20252;-93
2021/04/27 00:15:39;;;;;;;;;;;6.60;57.10;;;;;;5053115;28;19912;-93
2021/04/27 00:18:05;;;;;;;;;;;6.60;57.30;;;;;;5052136;28;19935;-94
2021/04/27 00:20:30;;;;;;;;;;;6.50;57.20;;;;;;5051443;28;19917;-92
2021/04/27 00:22:56;;;;;;;;;;;6.50;57.20;;;;;;5048164;28;19920;-92
2021/04/27 00:25:22;;;;;;;;;;;6.50;57.10;;;;;;5052740;28;19935;-91
2021/04/27 00:27:50;;;;;;;;;;;6.50;57.00;;;;;;5052817;28;19920;-92
2021/04/27 00:30:16;;;;;;;;;;;6.50;57.70;;;;;;5051250;28;19917;-92
2021/04/27 00:32:42;;;;;;;;;;;6.40;58.00;;;;;;5040812;28;19974;-92
2021/04/27 00:35:08;;;;;;;;;;;6.30;59.40;;;;;;5052851;28;19909;-92
2021/04/27 00:37:54;;;;;;;;;;;6.20;59.60;;;;;;5049899;28;19920;-91
2021/04/27 00:40:21;;;;;;;;;;;6.20;59.50;;;;;;5048647;28;20011;-92
2021/04/27 00:42:48;;;;;;;;;;;6.10;60.40;;;;;;5051194;28;19939;-92
2021/04/27 00:45:15;;;;;;;;;;;6.10;59.90;;;;;;5051204;28;19932;-92
2021/04/27 00:47:41;;;;;;;;;;;6.10;60.10;;;;;;5050080;28;19962;-91
2021/04/27 00:50:08;;;;;;;;;;;6.00;60.80;;;;;;5052465;28;20322;-90
2021/04/27 00:52:34;;;;;;;;;;;6.00;60.60;;;;;;5049398;28;20451;-91
2021/04/27 00:54:59;;;;;;;;;;;5.80;61.00;;;;;;5051435;28;19944;-91
2021/04/27 00:57:25;;;;;;;;;;;5.90;61.00;;;;;;5054975;28;20055;-92
2021/04/27 00:59:52;;;;;;;;;;;5.90;60.40;;;;;;5044601;28;19960;-91
2021/04/27 01:02:18;;;;;;;;;;;5.80;61.20;;;;;;5044933;28;19965;-91
2021/04/27 01:04:43;;;;;;;;;;;5.90;60.90;;;;;;5052382;28;19917;-91
2021/04/27 01:07:09;;;;;;;;;;;5.90;60.40;;;;;;5040572;28;19995;-92
2021/04/27 01:09:47;;;;;;;;;;;5.90;60.50;;;;;;5032424;28;19909;-91
2021/04/27 01:12:15;;;;;;;;;;;5.90;61.00;;;;;;5033164;28;20013;-93
2021/04/27 01:14:42;;;;;;;;;;;5.80;61.20;;;;;;5052214;28;19920;-92
2021/04/27 01:17:09;;;;;;;;;;;5.70;61.80;;;;;;5052608;28;19913;-94
2021/04/27 01:19:55;;;;;;;;;;;5.70;61.80;;;;;;5051912;28;19916;-93
2021/04/27 01:22:26;;;;;;;;;;;5.70;61.70;;;;;;5052485;28;19913;-92
2021/04/27 01:24:54;;;;;;;;;;;5.70;61.50;;;;;;5036914;28;20323;-91
2021/04/27 01:27:19;;;;;;;;;;;5.70;61.60;;;;;;5047163;28;19967;-91
2021/04/27 01:29:45;;;;;;;;;;;5.60;61.60;;;;;;5054304;28;19917;-91
2021/04/27 01:32:11;;;;;;;;;;;5.70;61.30;;;;;;5054626;28;19919;-92
2021/04/27 01:34:38;;;;;;;;;;;5.70;61.00;;;;;;5055953;28;19939;-93
2021/04/27 01:37:05;;;;;;;;;;;5.70;60.80;;;;;;5056413;28;19909;-92
2021/04/27 01:39:31;;;;;;;;;;;5.70;60.70;;;;;;5054384;28;19924;-92
2021/04/27 01:41:58;;;;;;;;;;;5.70;60.70;;;;;;5054170;28;19913;-93
2021/04/27 01:44:24;;;;;;;;;;;5.70;61.10;;;;;;5055738;28;19913;-93
2021/04/27 01:46:50;;;;;;;;;;;5.60;61.50;;;;;;5054883;28;19952;-92
2021/04/27 01:49:17;;;;;;;;;;;5.50;61.70;;;;;;5055860;28;19962;-92
2021/04/27 01:51:42;;;;;;;;;;;5.50;62.20;;;;;;5049343;28;19909;-93
2021/04/27 01:54:08;;;;;;;;;;;5.60;61.70;;;;;;5049640;28;19909;-92
2021/04/27 01:56:34;;;;;;;;;;;5.50;62.10;;;;;;5052177;28;19913;-91
2021/04/27 01:59:00;;;;;;;;;;;5.50;61.80;;;;;;5040299;28;20019;-91
2021/04/27 02:01:25;;;;;;;;;;;5.50;61.80;;;;;;5055092;28;19908;-91
2021/04/27 02:03:51;;;;;;;;;;;5.40;62.30;;;;;;5044854;28;20513;-91
2021/04/27 02:06:16;;;;;;;;;;;5.40;62.00;;;;;;5055231;28;19995;-92
2021/04/27 02:08:46;;;;;;;;;;;5.40;62.50;;;;;;5053039;28;19917;-92
2021/04/27 02:11:11;;;;;;;;;;;5.30;63.60;;;;;;5042229;28;19944;-91
2021/04/27 02:13:37;;;;;;;;;;;5.30;63.50;;;;;;5054527;28;19948;-91
2021/04/27 02:16:03;;;;;;;;;;;5.30;63.00;;;;;;5054702;28;19939;-92
2021/04/27 02:18:31;;;;;;;;;;;5.30;63.50;;;;;;5054550;28;19917;-91
2021/04/27 02:20:58;;;;;;;;;;;5.20;63.30;;;;;;5054315;28;19913;-91
2021/04/27 02:23:24;;;;;;;;;;;5.30;62.80;;;;;;5053055;28;19920;-91
2021/04/27 02:25:51;;;;;;;;;;;5.30;62.30;;;;;;5054954;28;19913;-92
2021/04/27 02:28:17;;;;;;;;;;;5.30;62.00;;;;;;5054862;28;19908;-92
2021/04/27 02:30:43;;;;;;;;;;;5.30;62.70;;;;;;5054796;28;19913;-91
2021/04/27 02:33:09;;;;;;;;;;;5.40;62.40;;;;;;5054839;28;19908;-91
2021/04/27 02:35:34;;;;;;;;;;;5.40;62.00;;;;;;5054906;28;19915;-91
2021/04/27 02:38:00;;;;;;;;;;;5.40;61.70;;;;;;5053848;28;19921;-92
2021/04/27 02:40:26;;;;;;;;;;;5.40;61.60;;;;;;5067558;28;20000;-93
2021/04/27 02:42:53;;;;;;;;;;;5.40;61.40;;;;;;5055724;28;19913;-93
2021/04/27 02:45:19;;;;;;;;;;;5.40;62.10;;;;;;5053604;28;19912;-93
2021/04/27 02:47:44;;;;;;;;;;;5.30;61.80;;;;;;5054621;28;19908;-92
2021/04/27 02:50:12;;;;;;;;;;;5.40;61.50;;;;;;5046806;28;19945;-93
2021/04/27 02:52:38;;;;;;;;;;;5.30;61.70;;;;;;5058010;28;19913;-93
2021/04/27 02:55:04;;;;;;;;;;;5.30;61.90;;;;;;5061389;28;19912;-93
2021/04/27 02:57:29;;;;;;;;;;;5.30;62.10;;;;;;5064356;28;19919;-91
2021/04/27 02:59:54;;;;;;;;;;;5.30;61.90;;;;;;5063713;28;20307;-91
2021/04/27 03:02:20;;;;;;;;;;;5.30;62.00;;;;;;5061251;28;19920;-91
2021/04/27 03:04:45;;;;;;;;;;;5.30;61.80;;;;;;5060743;28;19913;-92
2021/04/27 03:07:11;;;;;;;;;;;5.30;61.80;;;;;;5055423;28;20263;-91
2021/04/27 03:09:36;;;;;;;;;;;5.20;62.10;;;;;;5052945;28;19909;-92
2021/04/27 03:12:03;;;;;;;;;;;5.10;62.70;;;;;;5052392;28;20344;-91
2021/04/27 03:14:28;;;;;;;;;;;5.10;62.50;;;;;;5034593;28;19909;-92
2021/04/27 03:16:54;;;;;;;;;;;5.10;62.30;;;;;;5053663;28;19919;-92
2021/04/27 03:19:19;;;;;;;;;;;5.10;62.40;;;;;;5053719;28;19920;-91
2021/04/27 03:21:45;;;;;;;;;;;5.00;62.90;;;;;;5052073;28;19912;-91
2021/04/27 03:24:10;;;;;;;;;;;5.00;63.10;;;;;;5052628;28;19909;-90
2021/04/27 03:26:36;;;;;;;;;;;5.00;63.00;;;;;;5038811;28;19917;-91
2021/04/27 03:29:02;;;;;;;;;;;5.10;62.70;;;;;;5052394;28;19916;-91
2021/04/27 03:31:27;;;;;;;;;;;5.10;62.40;;;;;;5053216;28;19996;-93
2021/04/27 03:33:53;;;;;;;;;;;5.10;62.00;;;;;;5052731;28;19980;-95
2021/04/27 03:36:18;;;;;;;;;;;5.10;61.80;;;;;;5047157;28;19917;-94
2021/04/27 03:38:44;;;;;;;;;;;5.10;62.00;;;;;;5045560;28;19917;-93
2021/04/27 03:41:09;;;;;;;;;;;5.10;61.90;;;;;;5048841;28;19956;-92
2021/04/27 03:43:35;;;;;;;;;;;5.00;61.90;;;;;;5050261;28;20372;-93
2021/04/27 03:46:00;;;;;;;;;;;4.90;62.30;;;;;;5052009;28;19920;-93
2021/04/27 03:48:26;;;;;;;;;;;4.90;62.50;;;;;;5048237;28;19909;-92
2021/04/27 03:50:51;;;;;;;;;;;4.90;62.30;;;;;;5032639;28;20423;-93
2021/04/27 03:53:17;;;;;;;;;;;4.90;62.20;;;;;;5048413;28;19912;-93
2021/04/27 03:55:43;;;;;;;;;;;4.90;62.20;;;;;;5043017;28;19936;-91
2021/04/27 03:58:08;;;;;;;;;;;4.90;62.20;;;;;;5052947;28;19924;-91
2021/04/27 04:00:34;;;;;;;;;;;4.90;62.10;;;;;;5051079;28;19909;-91
2021/04/27 04:03:00;;;;;;;;;;;4.90;61.90;;;;;;5052615;28;19912;-91
2021/04/27 04:05:25;;;;;;;;;;;4.90;61.80;;;;;;5047194;28;20007;-91
2021/04/27 04:07:51;;;;;;;;;;;4.90;61.80;;;;;;5036790;28;20000;-93
2021/04/27 04:10:16;;;;;;;;;;;4.90;61.80;;;;;;5052909;28;19909;-93
2021/04/27 04:12:43;;;;;;;;;;;4.90;61.80;;;;;;5051878;28;20434;-93
2021/04/27 04:15:10;;;;;;;;;;;4.80;62.00;;;;;;5051639;28;19909;-90
2021/04/27 04:17:36;;;;;;;;;;;4.90;61.90;;;;;;5051917;28;19908;-91
2021/04/27 04:20:03;;;;;;;;;;;4.80;62.00;;;;;;5052309;28;19985;-92
2021/04/27 04:22:28;;;;;;;;;;;4.80;62.50;;;;;;5058598;28;19921;-91
2021/04/27 04:24:54;;;;;;;;;;;4.70;62.90;;;;;;5054437;28;19948;-91
2021/04/27 04:27:19;;;;;;;;;;;4.70;62.70;;;;;;5053075;28;20300;-91
2021/04/27 04:29:45;;;;;;;;;;;4.80;62.60;;;;;;5052199;28;19939;-92
2021/04/27 04:32:13;;;;;;;;;;;4.80;62.60;;;;;;5039234;28;19917;-92
2021/04/27 04:34:39;;;;;;;;;;;4.70;62.70;;;;;;5037825;28;19914;-92
2021/04/27 04:37:05;;;;;;;;;;;4.80;62.50;;;;;;5046927;28;20358;-91
2021/04/27 04:39:30;;;;;;;;;;;4.80;62.60;;;;;;5052941;28;19944;-90
2021/04/27 04:41:56;;;;;;;;;;;4.70;63.50;;;;;;5052491;28;19919;-91
2021/04/27 04:44:21;;;;;;;;;;;4.70;63.70;;;;;;5052582;28;19909;-92
2021/04/27 04:46:47;;;;;;;;;;;4.60;64.20;;;;;;5051159;28;20363;-92
2021/04/27 04:49:13;;;;;;;;;;;4.60;64.10;;;;;;5045868;28;19916;-93
2021/04/27 04:51:38;;;;;;;;;;;4.60;64.00;;;;;;5052712;28;19932;-92
2021/04/27 04:54:04;;;;;;;;;;;4.70;64.00;;;;;;5051981;28;19920;-92
2021/04/27 04:56:29;;;;;;;;;;;4.70;63.60;;;;;;5051797;28;20384;-93
2021/04/27 04:58:54;;;;;;;;;;;4.80;63.50;;;;;;5052571;28;19920;-93
2021/04/27 05:01:20;;;;;;;;;;;4.80;63.60;;;;;;5051072;28;19917;-94
2021/04/27 05:03:45;;;;;;;;;;;4.80;63.70;;;;;;5053909;28;19963;-96
2021/04/27 05:06:16;;;;;;;;;;;4.80;63.70;;;;;;5056508;28;20000;-92
2021/04/27 05:08:47;;;;;;;;;;;4.80;63.60;;;;;;5055147;28;19909;-93
2021/04/27 05:11:13;;;;;;;;;;;4.90;63.70;;;;;;5054553;28;20004;-92
2021/04/27 05:13:39;;;;;;;;;;;4.80;63.90;;;;;;5045104;28;19944;-93
2021/04/27 05:16:07;;;;;;;;;;;4.90;63.90;;;;;;5054883;28;19952;-92
2021/04/27 05:18:33;;;;;;;;;;;4.90;63.60;;;;;;5054020;28;19917;-91
2021/04/27 05:20:58;;;;;;;;;;;5.00;63.70;;;;;;5053624;28;19913;-91
2021/04/27 05:23:23;;;;;;;;;;;5.10;63.50;;;;;;5054760;28;20362;-92
2021/04/27 05:25:50;;;;;;;;;;;5.10;63.30;;;;;;5047654;28;19909;-92
2021/04/27 05:28:15;;;;;;;;;;;5.20;63.20;;;;;;5054648;28;20248;-90
2021/04/27 05:30:40;;;;;;;;;;;5.30;62.90;;;;;;5054299;28;19938;-91
2021/04/27 05:33:14;;;;;;;;;;;6.20;62.20;;;;;;5053484;28;19916;-90
2021/04/27 05:35:41;;;;;;;;;;;7.30;59.30;;;;;;5055495;28;19912;-91
2021/04/27 05:38:07;;;;;;;;;;;8.30;55.80;;;;;;5055040;28;19924;-91
2021/04/27 05:40:32;;;;;;;;;;;9.00;53.70;;;;;;5054481;28;19913;-92
2021/04/27 05:42:58;;;;;;;;;;;9.70;51.30;;;;;;5055753;28;20390;-92
2021/04/27 05:45:23;;;;;;;;;;;10.20;50.10;;;;;;5048567;28;19925;-91
2021/04/27 05:47:49;;;;;;;;;;;10.60;47.90;;;;;;5055826;28;19963;-92
2021/04/27 05:50:14;;;;;;;;;;;10.90;46.80;;;;;;5055550;28;19911;-92
2021/04/27 05:52:40;;;;;;;;;;;11.40;46.10;;;;;;5055963;28;20383;-92
2021/04/27 05:55:06;;;;;;;;;;;12.10;45.40;;;;;;5055618;28;19913;-95
2021/04/27 05:57:31;;;;;;;;;;;12.50;44.00;;;;;;5056258;28;19913;-95
2021/04/27 05:59:57;;;;;;;;;;;12.90;42.30;;;;;;5056507;28;19928;-96
2021/04/27 06:02:22;;;;;;;;;;;13.00;41.30;;;;;;5061271;28;19932;-95
2021/04/27 06:04:47;;;;;;;;;;;13.20;41.20;;;;;;5068363;28;19923;-95
2021/04/27 06:07:13;;;;;;;;;;;13.30;39.80;;;;;;5055824;28;19920;-95
2021/04/27 06:09:39;;;;;;;;;;;13.50;39.90;;;;;;5046189;28;20279;-96
2021/04/27 06:12:04;;;;;;;;;;;13.70;39.20;;;;;;5035817;28;19956;-95
2021/04/27 06:14:30;;;;;;;;;;;13.90;38.40;;;;;;5045055;28;20511;-94
2021/04/27 06:16:55;;;;;;;;;;;13.90;38.30;;;;;;5055537;28;19963;-95
2021/04/27 06:19:21;;;;;;;;;;;14.00;37.60;;;;;;5056388;28;19924;-95
2021/04/27 06:21:47;;;;;;;;;;;14.20;37.90;;;;;;5056711;28;19920;-96
2021/04/27 06:24:13;;;;;;;;;;;14.40;36.90;;;;;;5056263;28;19939;-95
2021/04/27 06:26:39;;;;;;;;;;;14.70;36.80;;;;;;5055506;28;19920;-95
2021/04/27 06:29:05;;;;;;;;;;;14.90;36.30;;;;;;5054789;28;19924;-90
2021/04/27 06:31:31;;;;;;;;;;;15.20;36.60;;;;;;5055492;28;19909;-96
2021/04/27 06:33:57;;;;;;;;;;;15.10;35.10;;;;;;5051946;28;19920;-88
2021/04/27 06:36:22;;;;;;;;;;;15.30;35.60;;;;;;5052831;28;19916;-88
2021/04/27 06:38:48;;;;;;;;;;;15.50;35.00;;;;;;5048083;28;19928;-87
2021/04/27 06:41:13;;;;;;;;;;;15.60;34.50;;;;;;5050114;28;20002;-88
2021/04/27 06:43:39;;;;;;;;;;;15.60;34.50;;;;;;5052081;28;20001;-88
2021/04/27 06:46:05;;;;;;;;;;;15.60;33.90;;;;;;5052201;28;20321;-87
2021/04/27 06:48:33;;;;;;;;;;;15.50;34.80;;;;;;5053397;28;19913;-94
2021/04/27 06:50:59;;;;;;;;;;;16.00;34.30;;;;;;5054882;28;19908;-93
2021/04/27 06:53:25;;;;;;;;;;;16.00;34.00;;;;;;5053246;28;20016;-93
2021/04/27 06:55:50;;;;;;;;;;;16.10;34.10;;;;;;5053479;28;19983;-93
2021/04/27 06:58:16;;;;;;;;;;;16.10;33.50;;;;;;5053470;28;19935;-93
2021/04/27 07:00:42;;;;;;;;;;;16.00;33.50;;;;;;5054818;28;19913;-92
2021/04/27 07:03:08;;;;;;;;;;;16.20;33.90;;;;;;5054744;28;19909;-96
2021/04/27 07:05:33;;;;;;;;;;;16.70;33.50;;;;;;5054592;28;19929;-96
2021/04/27 07:07:59;;;;;;;;;;;16.50;33.00;;;;;;5054651;28;19991;-94
2021/04/27 07:10:25;;;;;;;;;;;16.40;33.10;;;;;;5055868;28;19928;-93
2021/04/27 07:12:51;;;;;;;;;;;16.50;33.10;;;;;;5056143;28;19988;-93
2021/04/27 07:15:17;;;;;;;;;;;17.00;33.30;;;;;;5053587;28;20005;-95
2021/04/27 07:17:43;;;;;;;;;;;17.40;32.50;;;;;;5062772;28;19917;-94
2021/04/27 07:20:10;;;;;;;;;;;17.10;31.90;;;;;;5067835;28;19909;-96
2021/04/27 07:22:35;;;;;;;;;;;16.80;32.60;;;;;;5042833;28;19909;-92
2021/04/27 07:25:01;;;;;;;;;;;17.30;32.80;;;;;;5050837;28;19955;-94
2021/04/27 07:27:26;;;;;;;;;;;17.70;31.90;;;;;;5032665;28;19971;-93
2021/04/27 07:29:52;;;;;;;;;;;18.30;31.80;;;;;;5033802;28;19940;-92
2021/04/27 07:32:17;;;;;;;;;;;18.90;31.40;;;;;;5033978;28;20008;-93
2021/04/27 07:34:43;;;;;;;;;;;19.30;30.70;;;;;;5039237;28;19909;-92
2021/04/27 07:37:09;;;;;;;;;;;19.00;30.20;;;;;;5054097;28;19927;-93
2021/04/27 07:39:35;;;;;;;;;;;18.50;30.00;;;;;;5048613;28;19924;-93
2021/04/27 07:42:00;;;;;;;;;;;17.90;30.70;;;;;;5049304;28;19913;-92
2021/04/27 07:44:26;;;;;;;;;;;17.80;31.80;;;;;;5053334;28;20051;-93
2021/04/27 07:46:51;;;;;;;;;;;17.80;31.90;;;;;;5053803;28;19909;-92
2021/04/27 07:49:17;;;;;;;;;;;17.90;31.90;;;;;;5052891;28;20352;-92
2021/04/27 07:51:42;;;;;;;;;;;17.40;31.90;;;;;;5052953;28;19913;-93
2021/04/27 07:54:10;;;;;;;;;;;16.80;33.20;;;;;;5053246;28;19920;-93
2021/04/27 07:56:36;;;;;;;;;;;16.90;33.40;;;;;;5053866;28;19959;-92
2021/04/27 07:59:05;;;;;;;;;;;17.10;33.70;;;;;;5053216;28;20303;-93
2021/04/27 08:01:35;;;;;;;;;;;17.50;33.70;;;;;;5051522;28;19909;-92
2021/04/27 08:04:01;;;;;;;;;;;17.40;33.90;;;;;;5052150;28;19913;-93
2021/04/27 08:06:27;;;;;;;;;;;17.00;34.20;;;;;;5053558;28;19912;-93
2021/04/27 08:08:52;;;;;;;;;;;16.80;34.60;;;;;;5053591;28;19908;-93
2021/04/27 08:11:18;;;;;;;;;;;16.50;34.60;;;;;;5052969;28;19919;-93
2021/04/27 08:13:43;;;;;;;;;;;15.90;34.50;;;;;;5053340;28;19979;-93
2021/04/27 08:16:09;;;;;;;;;;;15.20;35.00;;;;;;5053415;28;19941;-93
2021/04/27 08:18:37;;;;;;;;;;;14.80;35.30;;;;;;5053494;28;19924;-91
2021/04/27 08:21:04;;;;;;;;;;;14.50;35.60;;;;;;5052071;28;19944;-92
2021/04/27 08:23:30;;;;;;;;;;;14.20;35.50;;;;;;5033271;28;19975;-92
2021/04/27 08:25:56;;;;;;;;;;;13.90;35.50;;;;;;5032915;28;19913;-93
2021/04/27 08:28:21;;;;;;;;;;;13.50;36.30;;;;;;5032761;28;19921;-93
2021/04/27 08:30:47;;;;;;;;;;;13.40;36.90;;;;;;5048364;28;19915;-93
2021/04/27 08:33:12;;;;;;;;;;;13.40;37.10;;;;;;5054748;28;20409;-93
2021/04/27 08:35:38;;;;;;;;;;;13.40;36.80;;;;;;5054870;28;20343;-92
2021/04/27 08:38:03;;;;;;;;;;;13.50;37.10;;;;;;5058070;28;19955;-90
2021/04/27 08:40:29;;;;;;;;;;;13.50;36.90;;;;;;5060923;28;19964;-92
2021/04/27 08:42:54;;;;;;;;;;;13.50;36.80;;;;;;5061027;28;20054;-93
2021/04/27 08:45:20;;;;;;;;;;;13.40;36.50;;;;;;5061654;28;19920;-92
2021/04/27 08:47:45;;;;;;;;;;;13.40;36.90;;;;;;5059142;28;19919;-92
2021/04/27 08:50:13;;;;;;;;;;;13.40;36.80;;;;;;5060374;28;19909;-92
2021/04/27 08:52:38;;;;;;;;;;;13.60;37.00;;;;;;5060435;28;19955;-92
2021/04/27 08:55:05;;;;;;;;;;;13.60;36.00;;;;;;5061213;28;20445;-92
2021/04/27 08:57:31;;;;;;;;;;;13.50;36.00;;;;;;5059981;28;19955;-92
2021/04/27 08:59:57;;;;;;;;;;;13.40;36.20;;;;;;5059965;28;20033;-92
2021/04/27 09:02:30;;;;;;;;;;;13.40;36.30;;;;;;5044161;28;19913;-92
2021/04/27 09:04:55;;;;;;;;;;;13.60;36.50;;;;;;5042705;28;19917;-93
2021/04/27 09:07:22;;;;;;;;;;;13.70;36.30;;;;;;5059201;28;19920;-93
2021/04/27 09:09:50;;;;;;;;;;;13.80;36.00;;;;;;5065081;28;19909;-93
2021/04/27 09:12:20;;;;;;;;;;;13.70;35.40;;;;;;5065467;28;19930;-94
2021/04/27 09:14:46;;;;;;;;;;;13.40;35.20;;;;;;5065954;28;19920;-93
2021/04/27 09:17:12;;;;;;;;;;;13.40;35.70;;;;;;5064338;28;19909;-90
2021/04/27 09:19:46;;;;;;;;;;;13.40;36.00;;;;;;5066011;28;19925;-93
2021/04/27 09:22:13;;;;;;;;;;;13.40;35.80;;;;;;5063777;28;19924;-92
2021/04/27 09:24:47;;;;;;;;;;;13.50;36.00;;;;;;5064787;28;20430;-93
2021/04/27 09:27:14;;;;;;;;;;;13.50;35.40;;;;;;5057668;28;19913;-93
2021/04/27 09:29:43;;;;;;;;;;;13.60;35.60;;;;;;5058279;28;19924;-93
2021/04/27 09:32:10;;;;;;;;;;;13.70;35.00;;;;;;5055592;28;19923;-90
2021/04/27 09:34:37;;;;;;;;;;;13.80;35.20;;;;;;5051946;28;19939;-92
2021/04/27 09:37:07;;;;;;;;;;;13.80;34.70;;;;;;5055651;28;20337;-90
2021/04/27 09:39:34;;;;;;;;;;;13.90;34.90;;;;;;5054052;28;19916;-91
2021/04/27 09:42:02;;;;;;;;;;;14.10;34.50;;;;;;5055004;28;19913;-92
2021/04/27 09:44:29;;;;;;;;;;;14.10;33.20;;;;;;5051821;28;19931;-91
2021/04/27 09:47:14;;;;;;;;;;;14.00;33.30;;;;;;5055640;28;20577;-92
2021/04/27 09:49:40;;;;;;;;;;;14.00;32.50;;;;;;5051505;28;19916;-91
2021/04/27 09:52:07;;;;;;;;;;;13.90;32.70;;;;;;5055388;28;20330;-93
2021/04/27 09:54:32;;;;;;;;;;;14.00;33.00;;;;;;5055275;28;20363;-92
2021/04/27 09:56:58;;;;;;;;;;;14.20;33.10;;;;;;5054723;28;19913;-91
2021/04/27 09:59:28;;;;;;;;;;;14.20;32.80;;;;;;5054836;28;20359;-89
2021/04/27 10:01:57;;;;;;;;;;;14.20;32.30;;;;;;5051227;28;19920;-88
2021/04/27 10:04:24;;;;;;;;;;;14.30;32.40;;;;;;5053587;28;19913;-92
2021/04/27 10:06:49;;;;;;;;;;;14.40;32.10;;;;;;5052359;28;19955;-92
2021/04/27 10:09:15;;;;;;;;;;;14.40;31.40;;;;;;5053293;28;19959;-91
2021/04/27 10:11:40;;;;;;;;;;;14.30;31.70;;;;;;5052796;28;20403;-91
2021/04/27 10:14:07;;;;;;;;;;;14.30;32.20;;;;;;5054065;28;19999;-88
2021/04/27 10:16:33;;;;;;;;;;;14.40;32.50;;;;;;5053068;28;19913;-88
2021/04/27 10:18:59;;;;;;;;;;;14.60;31.90;;;;;;5050279;28;19921;-91
2021/04/27 10:21:24;;;;;;;;;;;14.40;31.30;;;;;;5065007;28;19923;-92
2021/04/27 10:23:52;;;;;;;;;;;14.30;31.50;;;;;;5061746;28;19916;-88
2021/04/27 10:26:21;;;;;;;;;;;14.50;32.30;;;;;;5060189;28;19962;-89
2021/04/27 10:28:57;;;;;;;;;;;14.60;32.60;;;;;;5056880;28;20380;-90
2021/04/27 10:31:24;;;;;;;;;;;14.70;32.20;;;;;;5060278;28;19919;-89
2021/04/27 10:34:00;;;;;;;;;;;14.60;31.40;;;;;;5061655;28;19925;-89
2021/04/27 10:36:26;;;;;;;;;;;14.60;31.30;;;;;;5058577;28;20021;-91
2021/04/27 10:39:10;;;;;;;;;;;14.40;31.70;;;;;;5056776;28;19927;-90
2021/04/27 10:41:53;;;;;;;;;;;14.30;32.00;;;;;;5058479;28;20315;-90
2021/04/27 10:44:19;;;;;;;;;;;14.40;32.50;;;;;;5061283;28;19974;-91
2021/04/27 10:46:46;;;;;;;;;;;14.40;32.00;;;;;;5062518;28;19912;-91
2021/04/27 10:49:18;;;;;;;;;;;14.40;31.80;;;;;;5060447;28;19920;-91
2021/04/27 10:51:43;;;;;;;;;;;14.50;32.10;;;;;;5062229;28;19917;-92
2021/04/27 10:54:18;;;;;;;;;;;14.60;31.80;;;;;;5060522;28;19917;-91
2021/04/27 10:57:02;;;;;;;;;;;14.60;31.50;;;;;;5053448;28;19916;-92
2021/04/27 10:59:29;;;;;;;;;;;14.60;31.30;;;;;;5079807;28;19917;-94
2021/04/27 11:02:17;;;;;;;;;;;14.70;31.60;;;;;;5056753;28;20556;-94
2021/04/27 11:04:44;;;;;;;;;;;14.80;31.50;;;;;;5057287;28;19916;-93
2021/04/27 11:07:15;;;;;;;;;;;15.00;31.60;;;;;;5054842;28;20012;-90
2021/04/27 11:10:01;;;;;;;;;;;15.10;31.20;;;;;;5055655;28;19959;-90
2021/04/27 11:12:30;;;;;;;;;;;15.10;30.90;;;;;;5055823;28;19959;-91
2021/04/27 11:14:57;;;;;;;;;;;15.20;31.20;;;;;;5052826;28;19943;-91
2021/04/27 11:17:38;;;;;;;;;;;15.30;30.70;;;;;;5053218;28;19958;-93
2021/04/27 11:20:05;;;;;;;;;;;15.20;30.50;;;;;;5056054;28;19921;-94
2021/04/27 11:22:31;;;;;;;;;;;15.30;30.50;;;;;;5046977;28;19920;-94
2021/04/27 11:24:58;;;;;;;;;;;15.30;30.30;;;;;;5055567;28;19909;-94
2021/04/27 11:27:42;;;;;;;;;;;15.20;29.70;;;;;;5058261;28;19909;-95
2021/04/27 11:30:07;;;;;;;;;;;15.20;30.40;;;;;;5055255;28;19943;-94
2021/04/27 11:32:36;;;;;;;;;;;15.40;30.80;;;;;;5056955;28;20360;-94
2021/04/27 11:35:09;;;;;;;;;;;15.60;30.60;;;;;;5046198;28;19962;-93
2021/04/27 11:37:48;;;;;;;;;;;15.40;30.00;;;;;;5054226;28;19909;-91
2021/04/27 11:40:16;;;;;;;;;;;15.50;29.70;;;;;;5055668;28;19924;-92
2021/04/27 11:42:41;;;;;;;;;;;15.30;29.80;;;;;;5054213;28;19909;-93
2021/04/27 11:45:08;;;;;;;;;;;15.30;29.90;;;;;;5056337;28;19916;-92
2021/04/27 11:47:35;;;;;;;;;;;15.20;29.90;;;;;;5054239;28;19916;-91
2021/04/27 11:50:03;;;;;;;;;;;15.40;30.00;;;;;;5053032;28;19924;-91
2021/04/27 11:52:45;;;;;;;;;;;15.40;29.70;;;;;;5054005;28;19956;-91
2021/04/27 11:55:20;;;;;;;;;;;15.50;29.60;;;;;;5053054;28;19992;-92
2021/04/27 11:58:01;;;;;;;;;;;15.50;30.00;;;;;;5054195;28;19950;-93
2021/04/27 12:00:39;;;;;;;;;;;15.80;30.00;;;;;;5055296;28;19919;-93
2021/04/27 12:03:14;;;;;;;;;;;16.00;29.30;;;;;;5052035;28;19912;-92
2021/04/27 12:05:39;;;;;;;;;;;15.80;28.90;;;;;;5053247;28;19912;-93
2021/04/27 12:08:15;;;;;;;;;;;15.80;29.20;;;;;;5055372;28;19954;-92
2021/04/27 12:10:40;;;;;;;;;;;15.90;29.10;;;;;;5052881;28;19917;-92
2021/04/27 12:13:15;;;;;;;;;;;16.00;28.30;;;;;;5054676;28;19940;-92
2021/04/27 12:15:41;;;;;;;;;;;15.90;28.60;;;;;;5055869;28;19917;-92
2021/04/27 12:18:09;;;;;;;;;;;16.10;28.60;;;;;;5054099;28;19955;-91
2021/04/27 12:20:35;;;;;;;;;;;16.10;28.40;;;;;;5050542;28;20364;-95
2021/04/27 12:23:03;;;;;;;;;;;16.30;28.40;;;;;;5055304;28;19917;-94
2021/04/27 12:25:29;;;;;;;;;;;16.30;28.70;;;;;;5052188;28;20000;-94
2021/04/27 12:28:05;;;;;;;;;;;16.50;28.50;;;;;;5055915;28;19916;-94
2021/04/27 12:30:33;;;;;;;;;;;16.50;28.50;;;;;;5057559;28;19956;-93
2021/04/27 12:33:02;;;;;;;;;;;16.50;27.80;;;;;;5053498;28;19977;-91
2021/04/27 12:35:28;;;;;;;;;;;16.50;28.10;;;;;;5051750;28;19915;-91
2021/04/27 12:37:58;;;;;;;;;;;16.60;27.80;;;;;;5035394;28;19921;-91
2021/04/27 12:40:26;;;;;;;;;;;16.30;27.70;;;;;;5053183;28;19928;-92
2021/04/27 12:43:18;;;;;;;;;;;16.30;28.20;;;;;;5054358;28;19937;-93
2021/04/27 12:45:46;;;;;;;;;;;16.40;28.00;;;;;;5040788;28;20286;-92
2021/04/27 12:48:12;;;;;;;;;;;16.60;28.40;;;;;;5054155;28;19909;-92
2021/04/27 12:50:42;;;;;;;;;;;16.80;27.90;;;;;;5052592;28;19920;-92
2021/04/27 12:53:08;;;;;;;;;;;16.70;27.70;;;;;;5051223;28;20055;-93
2021/04/27 12:55:35;;;;;;;;;;;16.70;27.40;;;;;;5053960;28;19960;-94
2021/04/27 12:58:10;;;;;;;;;;;16.50;27.50;;;;;;5054335;28;19919;-92
2021/04/27 13:00:46;;;;;;;;;;;16.60;28.00;;;;;;5040172;28;19913;-93
2021/04/27 13:03:13;;;;;;;;;;;16.70;27.30;;;;;;5054306;28;19908;-94
2021/04/27 13:05:38;;;;;;;;;;;16.80;27.80;;;;;;5055907;28;19913;-93
2021/04/27 13:08:05;;;;;;;;;;;17.20;27.90;;;;;;5054803;28;19913;-93
2021/04/27 13:10:35;;;;;;;;;;;17.30;27.00;;;;;;5049316;28;20346;-92
2021/04/27 13:13:01;;;;;;;;;;;17.20;26.80;;;;;;5050902;28;19995;-92
2021/04/27 13:15:26;;;;;;;;;;;17.40;27.20;;;;;;5053604;28;20366;-93
2021/04/27 13:17:56;;;;;;;;;;;17.50;26.60;;;;;;5055911;28;19909;-93
2021/04/27 13:20:22;;;;;;;;;;;17.10;26.30;;;;;;5055050;28;20449;-93
2021/04/27 13:22:54;;;;;;;;;;;16.80;26.80;;;;;;5056126;28;19921;-93
2021/04/27 13:25:37;;;;;;;;;;;16.80;27.40;;;;;;5049176;28;19917;-93
2021/04/27 13:28:03;;;;;;;;;;;17.10;27.40;;;;;;5058584;28;19920;-93
2021/04/27 13:30:31;;;;;;;;;;;17.20;27.30;;;;;;5058078;28;19913;-94
2021/04/27 13:32:56;;;;;;;;;;;17.30;27.20;;;;;;5056009;28;19909;-93
2021/04/27 13:35:25;;;;;;;;;;;17.20;26.40;;;;;;5054767;28;19913;-93
2021/04/27 13:37:51;;;;;;;;;;;17.00;26.60;;;;;;5055707;28;19912;-93
2021/04/27 13:40:17;;;;;;;;;;;17.20;27.20;;;;;;5053017;28;19971;-91
2021/04/27 13:43:09;;;;;;;;;;;17.30;26.30;;;;;;5058206;28;19913;-91
2021/04/27 13:45:35;;;;;;;;;;;17.30;27.00;;;;;;5025430;28;19913;-91
2021/04/27 13:48:03;;;;;;;;;;;17.40;26.60;;;;;;5057763;28;19912;-92
2021/04/27 13:50:29;;;;;;;;;;;17.20;26.50;;;;;;5056647;28;19924;-92
2021/04/27 13:52:55;;;;;;;;;;;17.30;27.20;;;;;;5054014;28;19921;-91
2021/04/27 13:55:21;;;;;;;;;;;17.40;26.50;;;;;;5053958;28;19976;-91
2021/04/27 13:57:46;;;;;;;;;;;17.20;26.10;;;;;;5053964;28;19916;-92
2021/04/27 14:00:13;;;;;;;;;;;17.10;26.40;;;;;;5053493;28;20022;-92
2021/04/27 14:02:39;;;;;;;;;;;17.10;26.10;;;;;;5053879;28;19909;-92
2021/04/27 14:05:06;;;;;;;;;;;17.00;26.10;;;;;;5053537;28;20437;-91
2021/04/27 14:07:32;;;;;;;;;;;17.20;26.20;;;;;;5053850;28;19936;-91
2021/04/27 14:09:57;;;;;;;;;;;17.50;26.40;;;;;;5034827;28;20372;-90
2021/04/27 14:12:24;;;;;;;;;;;17.70;26.00;;;;;;5053323;28;19924;-93
2021/04/27 14:14:50;;;;;;;;;;;17.70;25.70;;;;;;5053700;28;19992;-90
2021/04/27 14:17:22;;;;;;;;;;;17.60;26.00;;;;;;5055429;28;19909;-93
2021/04/27 14:19:48;;;;;;;;;;;17.80;26.20;;;;;;5052369;28;20314;-91
2021/04/27 14:22:13;;;;;;;;;;;17.70;25.60;;;;;;5053367;28;19913;-91